To NAV CANADA Home Page Login to a new session Search on AWWS site Disclaimer Vers la page française équivalente Tips FAQ What's new on the site To the Forecasts and Observations / NOTAM section To "File a Flight Plan" website Publications and other links Update of the User's profile FIC Telephone Numbers My Weather Data Folder Route Weather Data Regional Weather Data Local Weather Data To the Forecasts and Observations / NOTAM section
Request Generated 09/19/2020 at 03:57:29 UTC . Weather information available at that time is displayed.

METAR/TAF

If you find any discrepancies between the coded METAR/TAF and the plain language METAR/TAF please use the coded METAR/TAF. LWIS bulletins are not decoded in plain language.

TORONTO/BILLY BISHOP TORONTO CITY AIRPORT/ON    (show WxCam)

METAR CYTZ 190300Z AUTO 34008KT 310V010 9SM CLR 10/00 A3034 RMK SLP278=
METAR
LOCATION
CYTZ - TORONTO/BILLY BISHOP TORONTO CITY A
DATE - TIME
19 SEPTEMBER 2020 - 0300 UTC
WIND
340 TRUE @ 8  KNOTS
VARIATION
310 <-> 10  DEG
VISIBILITY
9 STAT.  MILES
RUNWAY VISUAL RANGE
WEATHER
CLOUDINESS
CLEAR SKY
TEMP / DEWPOINT
10 C / 0 C
ALTIMETER
30.34 IN HG
RECENT WEATHER
WIND SHEAR

METAR CYTZ 190200Z AUTO 34008KT 310V010 9SM CLR 10/M00 A3033 RMK SLP272=
METAR
LOCATION
CYTZ - TORONTO/BILLY BISHOP TORONTO CITY A
DATE - TIME
19 SEPTEMBER 2020 - 0200 UTC
WIND
340 TRUE @ 8  KNOTS
VARIATION
310 <-> 10  DEG
VISIBILITY
9 STAT.  MILES
RUNWAY VISUAL RANGE
WEATHER
CLOUDINESS
CLEAR SKY
TEMP / DEWPOINT
10 C / 0 C
ALTIMETER
30.33 IN HG
RECENT WEATHER
WIND SHEAR

METAR CYTZ 190100Z AUTO 34008KT 300V360 9SM CLR 11/M00 A3031 RMK SLP268=
METAR
LOCATION
CYTZ - TORONTO/BILLY BISHOP TORONTO CITY A
DATE - TIME
19 SEPTEMBER 2020 - 0100 UTC
WIND
340 TRUE @ 8  KNOTS
VARIATION
300 <-> 360  DEG
VISIBILITY
9 STAT.  MILES
RUNWAY VISUAL RANGE
WEATHER
CLOUDINESS
CLEAR SKY
TEMP / DEWPOINT
11 C / 0 C
ALTIMETER
30.31 IN HG
RECENT WEATHER
WIND SHEAR

TAF CYTZ 190142Z 1902/2002 34008KT P6SM SKC BECMG 1905/1907 02008KT FM191400 07007KT P6SM FEW220 BECMG 1916/1918 10010KT FM200000 08009KT P6SM BKN170 RMK FCST BASED ON AUTO OBS. NXT FCST BY 190800Z=
TAF
LOCATION

CYTZ - TORONTO/BILLY BISHOP TORONTO CITY AIRPORT/ON
VALIDITY [UTC]
19 SEP - 0142 to
20 SEP - 0200
 
TIMES
[UTC]
WIND
[DEGREES TRUE]
VISIBILITY
[STAT. MILES]
WEATHER
CLOUDINESS
[FEET AGL]
 
19 SEP - 0200 to
19 SEP - 1400
340 @ 8 KNOTS
6+
NIL
CLEAR SKY
BECOMING
19 SEP - 0500 to
19 SEP - 0700
20 @ 8 KNOTS
 
 
 
 
19 SEP - 1400 to
20 SEP - 0000
70 @ 7 KNOTS
6+
NIL
22000 FEW
BECOMING
19 SEP - 1600 to
19 SEP - 1800
100 @ 10 KNOTS
 
 
 
 
20 SEP - 0000 to
20 SEP - 0200
80 @ 9 KNOTS
6+
NIL
17000 BROKEN
REMARKS
THE FORECAST IS BASED ON AUTOMATIC OBSERVATIONS - THE NEXT FORECAST WILL BE ISSUED BY 0800 UTC ON DAY 19


Your time UTC time
Weather data provided by Environment Canada and NAV CANADA